sensor_id;sensor_type;location;lat;lon;timestamp;pressure;altitude;pressure_sealevel;temperature;humidity
10071;BME280;5074;53.720;10.014;2022-11-11T00:01:11;102120.13;;;11.05;100.00
10071;BME280;5074;53.720;10.014;2022-11-11T00:03:40;102119.31;;;11.01;100.00
10071;BME280;5074;53.720;10.014;2022-11-11T00:06:10;102121.06;;;11.02;100.00
10071;BME280;5074;53.720;10.014;2022-11-11T00:08:40;102108.63;;;11.00;100.00
10071;BME280;5074;53.720;10.014;2022-11-11T00:11:11;102087.22;;;11.00;100.00
10071;BME280;5074;53.720;10.014;2022-11-11T00:13:41;102099.69;;;11.01;100.00
10071;BME280;5074;53.720;10.014;2022-11-11T00:16:11;102107.69;;;11.02;100.00
10071;BME280;5074;53.720;10.014;2022-11-11T00:18:40;102123.75;;;11.02;100.00
10071;BME280;5074;53.720;10.014;2022-11-11T00:21:27;102120.16;;;11.02;100.00
10071;BME280;5074;53.720;10.014;2022-11-11T00:24:21;102115.78;;;10.99;100.00
10071;BME280;5074;53.720;10.014;2022-11-11T00:27:07;102121.94;;;11.03;100.00
10071;BME280;5074;53.720;10.014;2022-11-11T00:29:35;102107.72;;;11.01;100.00
10071;BME280;5074;53.720;10.014;2022-11-11T00:32:04;102110.50;;;10.93;100.00
10071;BME280;5074;53.720;10.014;2022-11-11T00:34:55;102114.84;;;11.00;100.00
10071;BME280;5074;53.720;10.014;2022-11-11T00:37:37;102103.31;;;10.97;100.00
10071;BME280;5074;53.720;10.014;2022-11-11T00:40:08;102100.66;;;10.97;100.00
10071;BME280;5074;53.720;10.014;2022-11-11T00:42:37;102081.22;;;10.85;100.00
10071;BME280;5074;53.720;10.014;2022-11-11T00:45:06;102100.69;;;10.93;100.00
10071;BME280;5074;53.720;10.014;2022-11-11T00:47:34;102104.28;;;10.92;100.00
10071;BME280;5074;53.720;10.014;2022-11-11T00:50:22;102116.72;;;10.95;100.00
10071;BME280;5074;53.720;10.014;2022-11-11T00:53:10;102110.41;;;10.98;100.00
10071;BME280;5074;53.720;10.014;2022-11-11T00:55:41;102111.31;;;10.98;100.00
10071;BME280;5074;53.720;10.014;2022-11-11T00:58:09;102116.69;;;10.98;100.00
10071;BME280;5074;53.720;10.014;2022-11-11T01:00:37;102117.59;;;10.95;100.00
10071;BME280;5074;53.720;10.014;2022-11-11T01:03:05;102116.72;;;10.95;100.00
10071;BME280;5074;53.720;10.014;2022-11-11T01:05:33;102102.44;;;10.94;100.00
10071;BME280;5074;53.720;10.014;2022-11-11T01:08:01;102109.56;;;10.95;100.00
10071;BME280;5074;53.720;10.014;2022-11-11T01:10:29;102118.50;;;10.94;100.00
10071;BME280;5074;53.720;10.014;2022-11-11T01:13:17;102124.75;;;10.95;100.00
10071;BME280;5074;53.720;10.014;2022-11-11T01:15:47;102131.81;;;10.98;100.00
10071;BME280;5074;53.720;10.014;2022-11-11T01:18:18;102135.44;;;10.97;100.00
10071;BME280;5074;53.720;10.014;2022-11-11T01:20:47;102140.75;;;10.98;100.00
10071;BME280;5074;53.720;10.014;2022-11-11T01:23:15;102122.91;;;10.99;100.00
10071;BME280;5074;53.720;10.014;2022-11-11T01:25:44;102124.69;;;10.98;100.00
10071;BME280;5074;53.720;10.014;2022-11-11T01:28:12;102121.13;;;10.99;100.00
10071;BME280;5074;53.720;10.014;2022-11-11T01:30:41;102119.31;;;11.00;100.00
10071;BME280;5074;53.720;10.014;2022-11-11T01:33:10;102119.34;;;10.98;100.00
10071;BME280;5074;53.720;10.014;2022-11-11T01:35:38;102114.72;;;11.09;100.00
10071;BME280;5074;53.720;10.014;2022-11-11T01:38:07;102121.06;;;11.04;100.00
10071;BME280;5074;53.720;10.014;2022-11-11T01:40:40;102115.66;;;11.07;100.00
10071;BME280;5074;53.720;10.014;2022-11-11T01:43:20;102110.34;;;11.04;100.00
10071;BME280;5074;53.720;10.014;2022-11-11T01:45:53;102107.66;;;11.05;100.00
10071;BME280;5074;53.720;10.014;2022-11-11T01:48:28;102105.03;;;11.02;100.00
10071;BME280;5074;53.720;10.014;2022-11-11T01:51:21;102110.41;;;10.98;100.00
10071;BME280;5074;53.720;10.014;2022-11-11T01:53:55;102114.78;;;11.03;100.00
10071;BME280;5074;53.720;10.014;2022-11-11T01:56:25;102117.53;;;11.00;100.00
10071;BME280;5074;53.720;10.014;2022-11-11T01:58:57;102113.91;;;11.03;100.00
10071;BME280;5074;53.720;10.014;2022-11-11T02:01:28;102106.78;;;11.02;100.00
10071;BME280;5074;53.720;10.014;2022-11-11T02:03:57;102112.13;;;11.03;100.00
10071;BME280;5074;53.720;10.014;2022-11-11T02:06:46;102106.78;;;11.02;100.00
10071;BME280;5074;53.720;10.014;2022-11-11T02:09:15;102111.25;;;11.03;100.00
10071;BME280;5074;53.720;10.014;2022-11-11T02:11:44;102096.09;;;11.02;100.00
10071;BME280;5074;53.720;10.014;2022-11-11T02:14:30;102110.38;;;11.02;100.00
10071;BME280;5074;53.720;10.014;2022-11-11T02:17:08;102094.34;;;11.01;100.00
10071;BME280;5074;53.720;10.014;2022-11-11T02:19:45;102089.03;;;10.96;100.00
10071;BME280;5074;53.720;10.014;2022-11-11T02:22:23;102083.63;;;11.02;100.00
10071;BME280;5074;53.720;10.014;2022-11-11T02:24:55;102072.97;;;10.99;100.00
10071;BME280;5074;53.720;10.014;2022-11-11T02:27:26;102075.66;;;10.98;100.00
10071;BME280;5074;53.720;10.014;2022-11-11T02:29:57;102075.66;;;10.98;100.00
10071;BME280;5074;53.720;10.014;2022-11-11T02:32:26;102073.00;;;10.96;100.00
10071;BME280;5074;53.720;10.014;2022-11-11T02:34:54;102064.94;;;10.98;100.00
10071;BME280;5074;53.720;10.014;2022-11-11T02:37:24;102071.28;;;10.93;100.00
10071;BME280;5074;53.720;10.014;2022-11-11T02:39:58;102076.59;;;10.95;100.00
10071;BME280;5074;53.720;10.014;2022-11-11T02:42:33;102079.34;;;10.92;100.00
10071;BME280;5074;53.720;10.014;2022-11-11T02:45:02;102081.94;;;10.97;100.00
10071;BME280;5074;53.720;10.014;2022-11-11T02:47:31;102087.31;;;10.93;100.00
10071;BME280;5074;53.720;10.014;2022-11-11T02:49:59;102098.78;;;11.00;100.00
10071;BME280;5074;53.720;10.014;2022-11-11T02:52:27;102095.28;;;10.98;100.00
10071;BME280;5074;53.720;10.014;2022-11-11T02:54:55;102102.47;;;10.93;100.00
10071;BME280;5074;53.720;10.014;2022-11-11T02:57:24;102119.44;;;10.93;100.00
10071;BME280;5074;53.720;10.014;2022-11-11T02:59:53;102127.41;;;10.97;100.00
10071;BME280;5074;53.720;10.014;2022-11-11T03:02:21;102121.16;;;10.96;100.00
10071;BME280;5074;53.720;10.014;2022-11-11T03:04:54;102123.91;;;10.91;100.00
10071;BME280;5074;53.720;10.014;2022-11-11T03:07:23;102108.81;;;10.86;100.00
10071;BME280;5074;53.720;10.014;2022-11-11T03:09:52;102117.78;;;10.85;100.00
10071;BME280;5074;53.720;10.014;2022-11-11T03:12:20;102116.00;;;10.84;100.00
10071;BME280;5074;53.720;10.014;2022-11-11T03:14:49;102113.44;;;10.77;100.00
10071;BME280;5074;53.720;10.014;2022-11-11T03:17:18;102117.00;;;10.76;100.00
10071;BME280;5074;53.720;10.014;2022-11-11T03:20:04;102119.75;;;10.72;100.00
10071;BME280;5074;53.720;10.014;2022-11-11T03:22:59;102122.41;;;10.72;100.00
10071;BME280;5074;53.720;10.014;2022-11-11T03:25:27;102126.97;;;10.65;100.00
10071;BME280;5074;53.720;10.014;2022-11-11T03:28:05;102128.81;;;10.58;100.00
10071;BME280;5074;53.720;10.014;2022-11-11T03:30:35;102123.47;;;10.58;100.00
10071;BME280;5074;53.720;10.014;2022-11-11T03:33:03;102123.50;;;10.55;100.00
10071;BME280;5074;53.720;10.014;2022-11-11T03:35:32;102123.50;;;10.55;100.00
10071;BME280;5074;53.720;10.014;2022-11-11T03:38:00;102144.06;;;10.53;100.00
10071;BME280;5074;53.720;10.014;2022-11-11T03:40:51;102140.47;;;10.54;100.00
10071;BME280;5074;53.720;10.014;2022-11-11T03:43:21;102143.19;;;10.50;100.00
10071;BME280;5074;53.720;10.014;2022-11-11T03:45:52;102149.47;;;10.49;100.00
10071;BME280;5074;53.720;10.014;2022-11-11T03:48:21;102155.69;;;10.49;100.00
10071;BME280;5074;53.720;10.014;2022-11-11T03:50:50;102153.00;;;10.49;100.00
10071;BME280;5074;53.720;10.014;2022-11-11T03:53:19;102150.38;;;10.48;100.00
10071;BME280;5074;53.720;10.014;2022-11-11T03:55:49;102144.19;;;10.41;100.00
10071;BME280;5074;53.720;10.014;2022-11-11T03:58:17;102145.94;;;10.45;100.00
10071;BME280;5074;53.720;10.014;2022-11-11T04:00:46;102149.53;;;10.41;100.00
10071;BME280;5074;53.720;10.014;2022-11-11T04:03:17;102145.97;;;10.42;100.00
10071;BME280;5074;53.720;10.014;2022-11-11T04:06:04;102152.28;;;10.36;100.00
10071;BME280;5074;53.720;10.014;2022-11-11T04:08:49;102147.84;;;10.32;100.00
10071;BME280;5074;53.720;10.014;2022-11-11T04:11:37;102128.22;;;10.36;100.00
10071;BME280;5074;53.720;10.014;2022-11-11T04:14:08;102136.25;;;10.35;100.00
10071;BME280;5074;53.720;10.014;2022-11-11T04:16:54;102147.84;;;10.32;100.00
10071;BME280;5074;53.720;10.014;2022-11-11T04:19:23;102148.72;;;10.31;100.00
10071;BME280;5074;53.720;10.014;2022-11-11T04:22:09;102162.19;;;10.25;100.00
10071;BME280;5074;53.720;10.014;2022-11-11T04:24:37;102154.16;;;10.25;100.00
10071;BME280;5074;53.720;10.014;2022-11-11T04:27:22;102155.97;;;10.24;100.00
10071;BME280;5074;53.720;10.014;2022-11-11T04:29:50;102156.88;;;10.20;100.00
10071;BME280;5074;53.720;10.014;2022-11-11T04:32:19;102157.81;;;10.18;100.00
10071;BME280;5074;53.720;10.014;2022-11-11T04:35:08;102164.03;;;10.20;100.00
10071;BME280;5074;53.720;10.014;2022-11-11T04:37:44;102161.44;;;10.12;100.00
10071;BME280;5074;53.720;10.014;2022-11-11T04:40:12;102163.25;;;10.08;100.00
10071;BME280;5074;53.720;10.014;2022-11-11T04:42:57;102165.06;;;10.06;100.00
10071;BME280;5074;53.720;10.014;2022-11-11T04:45:25;102164.19;;;10.06;100.00
10071;BME280;5074;53.720;10.014;2022-11-11T04:47:58;102166.78;;;10.11;100.00
10071;BME280;5074;53.720;10.014;2022-11-11T04:50:30;102164.16;;;10.07;100.00
10071;BME280;5074;53.720;10.014;2022-11-11T04:52:58;102166.88;;;10.03;100.00
10071;BME280;5074;53.720;10.014;2022-11-11T04:55:27;102158.03;;;9.98;100.00
10071;BME280;5074;53.720;10.014;2022-11-11T04:58:13;102158.03;;;9.98;100.00
10071;BME280;5074;53.720;10.014;2022-11-11T05:00:41;102150.94;;;9.97;100.00
10071;BME280;5074;53.720;10.014;2022-11-11T05:03:10;102152.69;;;9.98;100.00
10071;BME280;5074;53.720;10.014;2022-11-11T05:05:47;102158.94;;;9.94;100.00
10071;BME280;5074;53.720;10.014;2022-11-11T05:08:34;102150.03;;;9.95;100.00
10071;BME280;5074;53.720;10.014;2022-11-11T05:11:21;102150.97;;;9.92;100.00
10071;BME280;5074;53.720;10.014;2022-11-11T05:13:50;102137.59;;;9.94;100.00
10071;BME280;5074;53.720;10.014;2022-11-11T05:16:37;102142.94;;;9.92;100.00
10071;BME280;5074;53.720;10.014;2022-11-11T05:19:24;102142.06;;;9.93;100.00
10071;BME280;5074;53.720;10.014;2022-11-11T05:22:13;102142.09;;;9.90;100.00
10071;BME280;5074;53.720;10.014;2022-11-11T05:24:43;102151.91;;;9.86;100.00
10071;BME280;5074;53.720;10.014;2022-11-11T05:27:29;102148.34;;;9.86;100.00
10071;BME280;5074;53.720;10.014;2022-11-11T05:29:57;102157.25;;;9.89;100.00
10071;BME280;5074;53.720;10.014;2022-11-11T05:32:25;102154.59;;;9.88;100.00
10071;BME280;5074;53.720;10.014;2022-11-11T05:34:53;102128.09;;;9.66;100.00
10071;BME280;5074;53.720;10.014;2022-11-11T05:37:22;102133.34;;;9.74;100.00
10071;BME280;5074;53.720;10.014;2022-11-11T05:39:50;102151.09;;;9.81;100.00
10071;BME280;5074;53.720;10.014;2022-11-11T05:42:18;102152.88;;;9.78;100.00
10071;BME280;5074;53.720;10.014;2022-11-11T05:44:46;102156.47;;;9.77;100.00
10071;BME280;5074;53.720;10.014;2022-11-11T05:47:15;102152.03;;;9.76;100.00
10071;BME280;5074;53.720;10.014;2022-11-11T05:49:43;102152.06;;;9.72;100.00
10071;BME280;5074;53.720;10.014;2022-11-11T05:52:13;102149.38;;;9.74;100.00
10071;BME280;5074;53.720;10.014;2022-11-11T05:54:43;102159.16;;;9.77;100.00
10071;BME280;5074;53.720;10.014;2022-11-11T05:57:11;102164.53;;;9.73;100.00
10071;BME280;5074;53.720;10.014;2022-11-11T05:59:39;102171.66;;;9.70;100.00
10071;BME280;5074;53.720;10.014;2022-11-11T06:02:08;102170.81;;;9.63;100.00
10071;BME280;5074;53.720;10.014;2022-11-11T06:04:36;102163.72;;;9.64;100.00
10071;BME280;5074;53.720;10.014;2022-11-11T06:07:04;102180.59;;;9.64;100.00
10071;BME280;5074;53.720;10.014;2022-11-11T06:09:32;102173.47;;;9.65;100.00
10071;BME280;5074;53.720;10.014;2022-11-11T06:12:02;102177.09;;;9.57;100.00
10071;BME280;5074;53.720;10.014;2022-11-11T06:14:30;102178.88;;;9.59;100.00
10071;BME280;5074;53.720;10.014;2022-11-11T06:16:58;102191.34;;;9.56;100.00
10071;BME280;5074;53.720;10.014;2022-11-11T06:19:26;102197.56;;;9.57;100.00
10071;BME280;5074;53.720;10.014;2022-11-11T06:21:54;102199.41;;;9.53;100.00
10071;BME280;5074;53.720;10.014;2022-11-11T06:24:26;102205.69;;;9.46;100.00
10071;BME280;5074;53.720;10.014;2022-11-11T06:26:55;102210.09;;;9.46;100.00
10071;BME280;5074;53.720;10.014;2022-11-11T06:29:24;102212.75;;;9.49;100.00
10071;BME280;5074;53.720;10.014;2022-11-11T06:31:52;102207.44;;;9.46;100.00
10071;BME280;5074;53.720;10.014;2022-11-11T06:34:20;102209.25;;;9.44;100.00
10071;BME280;5074;53.720;10.014;2022-11-11T06:36:48;102223.47;;;9.43;100.00
10071;BME280;5074;53.720;10.014;2022-11-11T06:39:16;102235.97;;;9.41;100.00
10071;BME280;5074;53.720;10.014;2022-11-11T06:41:44;102240.41;;;9.38;100.00
10071;BME280;5074;53.720;10.014;2022-11-11T06:44:12;102231.56;;;9.35;100.00
10071;BME280;5074;53.720;10.014;2022-11-11T06:46:41;102245.72;;;9.43;100.00
10071;BME280;5074;53.720;10.014;2022-11-11T06:49:09;102250.19;;;9.41;100.00
10071;BME280;5074;53.720;10.014;2022-11-11T06:51:37;102251.06;;;9.43;100.00
10071;BME280;5074;53.720;10.014;2022-11-11T06:54:05;102251.06;;;9.38;100.00
10071;BME280;5074;53.720;10.014;2022-11-11T06:56:34;102259.09;;;9.38;100.00
10071;BME280;5074;53.720;10.014;2022-11-11T06:59:02;102260.00;;;9.39;100.00
10071;BME280;5074;53.720;10.014;2022-11-11T07:01:30;102255.50;;;9.43;100.00
10071;BME280;5074;53.720;10.014;2022-11-11T07:03:59;102267.06;;;9.45;100.00
10071;BME280;5074;53.720;10.014;2022-11-11T07:06:27;102269.75;;;9.40;100.00
10071;BME280;5074;53.720;10.014;2022-11-11T07:08:55;102270.66;;;9.39;100.00
10071;BME280;5074;53.720;10.014;2022-11-11T07:11:23;102273.34;;;9.37;100.00
10071;BME280;5074;53.720;10.014;2022-11-11T07:13:51;102278.72;;;9.30;100.00
10071;BME280;5074;53.720;10.014;2022-11-11T07:16:19;102268.00;;;9.34;100.00
10071;BME280;5074;53.720;10.014;2022-11-11T07:18:47;102271.59;;;9.26;100.00
10071;BME280;5074;53.720;10.014;2022-11-11T07:21:17;102279.63;;;9.30;100.00
10071;BME280;5074;53.720;10.014;2022-11-11T07:23:45;102276.03;;;9.28;100.00
10071;BME280;5074;53.720;10.014;2022-11-11T07:26:13;102273.38;;;9.27;100.00
10071;BME280;5074;53.720;10.014;2022-11-11T07:28:40;102276.94;;;9.26;100.00
10071;BME280;5074;53.720;10.014;2022-11-11T07:31:08;102276.94;;;9.27;100.00
10071;BME280;5074;53.720;10.014;2022-11-11T07:33:36;102280.50;;;9.28;100.00
10071;BME280;5074;53.720;10.014;2022-11-11T07:36:05;102284.06;;;9.27;100.00
10071;BME280;5074;53.720;10.014;2022-11-11T07:38:34;102286.72;;;9.30;100.00
10071;BME280;5074;53.720;10.014;2022-11-11T07:41:03;102286.72;;;9.27;100.00
10071;BME280;5074;53.720;10.014;2022-11-11T07:43:31;102288.53;;;9.25;100.00
10071;BME280;5074;53.720;10.014;2022-11-11T07:45:59;102292.94;;;9.27;100.00
10071;BME280;5074;53.720;10.014;2022-11-11T07:48:27;102297.41;;;9.27;100.00
10071;BME280;5074;53.720;10.014;2022-11-11T07:50:55;102300.94;;;9.32;100.00
10071;BME280;5074;53.720;10.014;2022-11-11T07:53:23;102291.19;;;9.26;100.00
10071;BME280;5074;53.720;10.014;2022-11-11T07:55:53;102292.97;;;9.30;100.00
10071;BME280;5074;53.720;10.014;2022-11-11T07:58:21;102292.03;;;9.36;100.00
10071;BME280;5074;53.720;10.014;2022-11-11T08:00:50;102301.81;;;9.35;100.00
10071;BME280;5074;53.720;10.014;2022-11-11T08:03:18;102300.94;;;9.35;100.00
10071;BME280;5074;53.720;10.014;2022-11-11T08:05:46;102303.59;;;9.35;100.00
10071;BME280;5074;53.720;10.014;2022-11-11T08:08:14;102305.38;;;9.33;100.00
10071;BME280;5074;53.720;10.014;2022-11-11T08:10:42;102313.38;;;9.33;100.00
10071;BME280;5074;53.720;10.014;2022-11-11T08:13:12;102308.03;;;9.39;100.00
10071;BME280;5074;53.720;10.014;2022-11-11T08:15:57;102302.69;;;9.33;100.00
10071;BME280;5074;53.720;10.014;2022-11-11T08:18:28;102309.75;;;9.42;100.00
10071;BME280;5074;53.720;10.014;2022-11-11T08:20:57;102315.13;;;9.40;100.00
10071;BME280;5074;53.720;10.014;2022-11-11T08:23:25;102320.47;;;9.43;100.00
10071;BME280;5074;53.720;10.014;2022-11-11T08:26:18;102330.22;;;9.44;100.00
10071;BME280;5074;53.720;10.014;2022-11-11T08:28:56;102325.75;;;9.49;100.00
10071;BME280;5074;53.720;10.014;2022-11-11T08:31:25;102331.13;;;9.38;100.00
10071;BME280;5074;53.720;10.014;2022-11-11T08:33:53;102343.56;;;9.44;100.00
10071;BME280;5074;53.720;10.014;2022-11-11T08:36:21;102336.47;;;9.43;100.00
10071;BME280;5074;53.720;10.014;2022-11-11T08:38:51;102346.25;;;9.43;100.00
10071;BME280;5074;53.720;10.014;2022-11-11T08:41:19;102348.00;;;9.45;100.00
10071;BME280;5074;53.720;10.014;2022-11-11T08:43:53;102358.69;;;9.47;100.00
10071;BME280;5074;53.720;10.014;2022-11-11T08:46:23;102354.22;;;9.47;100.00
10071;BME280;5074;53.720;10.014;2022-11-11T08:48:51;102356.03;;;9.45;100.00
10071;BME280;5074;53.720;10.014;2022-11-11T08:51:20;102357.81;;;9.46;100.00
10071;BME280;5074;53.720;10.014;2022-11-11T08:53:48;102352.44;;;9.49;100.00
10071;BME280;5074;53.720;10.014;2022-11-11T08:56:16;102358.69;;;9.45;100.00
10071;BME280;5074;53.720;10.014;2022-11-11T08:58:44;102360.47;;;9.48;100.00
10071;BME280;5074;53.720;10.014;2022-11-11T09:01:12;102357.75;;;9.52;100.00
10071;BME280;5074;53.720;10.014;2022-11-11T09:03:42;102355.06;;;9.57;100.00
10071;BME280;5074;53.720;10.014;2022-11-11T09:06:12;102359.50;;;9.60;100.00
10071;BME280;5074;53.720;10.014;2022-11-11T09:08:41;102357.72;;;9.60;100.00
10071;BME280;5074;53.720;10.014;2022-11-11T09:11:10;102359.47;;;9.63;100.00
10071;BME280;5074;53.720;10.014;2022-11-11T09:13:38;102366.56;;;9.68;100.00
10071;BME280;5074;53.720;10.014;2022-11-11T09:16:07;102366.56;;;9.68;100.00
10071;BME280;5074;53.720;10.014;2022-11-11T09:18:35;102371.88;;;9.73;100.00
10071;BME280;5074;53.720;10.014;2022-11-11T09:21:05;102371.91;;;9.68;100.00
10071;BME280;5074;53.720;10.014;2022-11-11T09:23:33;102383.44;;;9.75;100.00
10071;BME280;5074;53.720;10.014;2022-11-11T09:26:01;102383.44;;;9.75;100.00
10071;BME280;5074;53.720;10.014;2022-11-11T09:28:31;102378.06;;;9.80;100.00
10071;BME280;5074;53.720;10.014;2022-11-11T09:31:00;102378.13;;;9.67;100.00
10071;BME280;5074;53.720;10.014;2022-11-11T09:33:49;102376.34;;;9.72;100.00
10071;BME280;5074;53.720;10.014;2022-11-11T09:36:18;102382.50;;;9.79;100.00
10071;BME280;5074;53.720;10.014;2022-11-11T09:38:47;102394.13;;;9.75;100.00
10071;BME280;5074;53.720;10.014;2022-11-11T09:41:19;102385.19;;;9.76;100.00
10071;BME280;5074;53.720;10.014;2022-11-11T09:43:53;102392.34;;;9.74;100.00
10071;BME280;5074;53.720;10.014;2022-11-11T09:46:38;102389.69;;;9.72;100.00
10071;BME280;5074;53.720;10.014;2022-11-11T09:49:27;102395.88;;;9.76;100.00
10071;BME280;5074;53.720;10.014;2022-11-11T09:52:05;102395.00;;;9.74;100.00
10071;BME280;5074;53.720;10.014;2022-11-11T09:54:41;102394.06;;;9.83;100.00
10071;BME280;5074;53.720;10.014;2022-11-11T09:57:14;102401.22;;;9.82;100.00
10071;BME280;5074;53.720;10.014;2022-11-11T09:59:47;102402.97;;;9.82;100.00
10071;BME280;5074;53.720;10.014;2022-11-11T10:02:25;102399.47;;;9.77;100.00
10071;BME280;5074;53.720;10.014;2022-11-11T10:05:01;102409.22;;;9.76;100.00
10071;BME280;5074;53.720;10.014;2022-11-11T10:07:36;102411.88;;;9.84;100.00
10071;BME280;5074;53.720;10.014;2022-11-11T10:10:12;102417.22;;;9.82;100.00
10071;BME280;5074;53.720;10.014;2022-11-11T10:12:46;102421.63;;;9.89;100.00
10071;BME280;5074;53.720;10.014;2022-11-11T10:15:17;102418.09;;;9.86;100.00
10071;BME280;5074;53.720;10.014;2022-11-11T10:17:57;102417.16;;;9.93;100.00
10071;BME280;5074;53.720;10.014;2022-11-11T10:20:29;102413.63;;;9.91;100.00
10071;BME280;5074;53.720;10.014;2022-11-11T10:23:04;102420.69;;;9.94;100.00
10071;BME280;5074;53.720;10.014;2022-11-11T10:25:35;102421.66;;;9.88;100.00
10071;BME280;5074;53.720;10.014;2022-11-11T10:28:04;102421.66;;;9.88;100.00
10071;BME280;5074;53.720;10.014;2022-11-11T10:30:34;102420.72;;;9.90;100.00
10071;BME280;5074;53.720;10.014;2022-11-11T10:33:04;102415.38;;;9.90;100.00
10071;BME280;5074;53.720;10.014;2022-11-11T10:35:38;102426.03;;;10.00;100.00
10071;BME280;5074;53.720;10.014;2022-11-11T10:38:19;102419.75;;;10.05;100.00
10071;BME280;5074;53.720;10.014;2022-11-11T10:40:52;102408.16;;;10.05;100.00
10071;BME280;5074;53.720;10.014;2022-11-11T10:43:23;102420.56;;;10.12;100.00
10071;BME280;5074;53.720;10.014;2022-11-11T10:45:57;102426.75;;;10.23;100.00
10071;BME280;5074;53.720;10.014;2022-11-11T10:48:36;102428.53;;;10.23;100.00
10071;BME280;5074;53.720;10.014;2022-11-11T10:51:10;102421.38;;;10.23;100.00
10071;BME280;5074;53.720;10.014;2022-11-11T10:53:44;102423.19;;;10.24;100.00
10071;BME280;5074;53.720;10.014;2022-11-11T10:56:18;102410.72;;;10.22;100.00
10071;BME280;5074;53.720;10.014;2022-11-11T10:58:52;102416.03;;;10.26;100.00
10071;BME280;5074;53.720;10.014;2022-11-11T11:01:26;102420.53;;;10.21;100.00
10071;BME280;5074;53.720;10.014;2022-11-11T11:04:02;102420.47;;;10.28;100.00
10071;BME280;5074;53.720;10.014;2022-11-11T11:06:35;102411.56;;;10.30;100.00
10071;BME280;5074;53.720;10.014;2022-11-11T11:09:11;102423.13;;;10.29;100.00
10071;BME280;5074;53.720;10.014;2022-11-11T11:11:47;102415.09;;;10.34;100.00
10071;BME280;5074;53.720;10.014;2022-11-11T11:14:20;102428.47;;;10.34;100.00
10071;BME280;5074;53.720;10.014;2022-11-11T11:16:51;102412.41;;;10.37;100.00
10071;BME280;5074;53.720;10.014;2022-11-11T11:19:23;102415.06;;;10.37;100.00
10071;BME280;5074;53.720;10.014;2022-11-11T11:21:54;102416.81;;;10.42;100.00
10071;BME280;5074;53.720;10.014;2022-11-11T11:24:25;102417.69;;;10.46;100.00
10071;BME280;5074;53.720;10.014;2022-11-11T11:26:56;102413.22;;;10.48;100.00
10071;BME280;5074;53.720;10.014;2022-11-11T11:29:26;102420.28;;;10.54;100.00
10071;BME280;5074;53.720;10.014;2022-11-11T11:31:54;102417.66;;;10.49;100.00
10071;BME280;5074;53.720;10.014;2022-11-11T11:34:41;102411.34;;;10.56;100.00
10071;BME280;5074;53.720;10.014;2022-11-11T11:37:09;102405.06;;;10.64;100.00
10071;BME280;5074;53.720;10.014;2022-11-11T11:39:39;102430.09;;;10.53;100.00
10071;BME280;5074;53.720;10.014;2022-11-11T11:42:07;102422.00;;;10.61;100.00
10071;BME280;5074;53.720;10.014;2022-11-11T11:44:37;102415.84;;;10.54;100.00
10071;BME280;5074;53.720;10.014;2022-11-11T11:47:15;102422.88;;;10.62;100.00
10071;BME280;5074;53.720;10.014;2022-11-11T11:52:58;102425.56;;;10.65;100.00
10071;BME280;5074;53.720;10.014;2022-11-11T11:55:35;102424.59;;;10.69;100.00
10071;BME280;5074;53.720;10.014;2022-11-11T11:58:29;102415.66;;;10.71;100.00
10071;BME280;5074;53.720;10.014;2022-11-11T12:01:10;102419.19;;;10.76;100.00
10071;BME280;5074;53.720;10.014;2022-11-11T12:04:07;102411.16;;;10.78;100.00
10071;BME280;5074;53.720;10.014;2022-11-11T12:06:45;102404.03;;;10.77;100.00
10071;BME280;5074;53.720;10.014;2022-11-11T12:09:26;102407.53;;;10.84;100.00
10071;BME280;5074;53.720;10.014;2022-11-11T12:12:02;102412.94;;;10.81;100.00
10071;BME280;5074;53.720;10.014;2022-11-11T12:17:29;102415.53;;;10.85;100.00
10071;BME280;5074;53.720;10.014;2022-11-11T12:20:08;102422.75;;;10.77;100.00
10071;BME280;5074;53.720;10.014;2022-11-11T12:22:51;102427.16;;;10.81;100.00
10071;BME280;5074;53.720;10.014;2022-11-11T12:25:34;102425.41;;;10.78;100.00
10071;BME280;5074;53.720;10.014;2022-11-11T12:28:11;102432.50;;;10.83;100.00
10071;BME280;5074;53.720;10.014;2022-11-11T12:30:50;102428.06;;;10.80;100.00
10071;BME280;5074;53.720;10.014;2022-11-11T12:33:37;102433.41;;;10.80;100.00
10071;BME280;5074;53.720;10.014;2022-11-11T12:36:12;102429.94;;;10.72;100.00
10071;BME280;5074;53.720;10.014;2022-11-11T12:38:48;102431.72;;;10.71;100.00
10071;BME280;5074;53.720;10.014;2022-11-11T12:41:26;102437.09;;;10.68;100.00
10071;BME280;5074;53.720;10.014;2022-11-11T12:44:03;102394.47;;;10.51;100.00
10071;BME280;5074;53.720;10.014;2022-11-11T12:46:48;102430.91;;;10.65;100.00
10071;BME280;5074;53.720;10.014;2022-11-11T12:52:25;102436.31;;;10.55;100.00
10071;BME280;5074;53.720;10.014;2022-11-11T12:55:12;102437.19;;;10.60;100.00
10071;BME280;5074;53.720;10.014;2022-11-11T12:57:59;102438.97;;;10.57;100.00
10071;BME280;5074;53.720;10.014;2022-11-11T13:00:33;102433.66;;;10.54;100.00
10071;BME280;5074;53.720;10.014;2022-11-11T13:03:27;102431.03;;;10.49;100.00
10071;BME280;5074;53.720;10.014;2022-11-11T13:06:06;102442.53;;;10.59;100.00
10071;BME280;5074;53.720;10.014;2022-11-11T13:08:48;102443.47;;;10.53;100.00
10071;BME280;5074;53.720;10.014;2022-11-11T13:11:26;102445.28;;;10.48;100.00
10071;BME280;5074;53.720;10.014;2022-11-11T13:14:10;102445.34;;;10.40;100.00
10071;BME280;5074;53.720;10.014;2022-11-11T13:16:49;102455.16;;;10.41;100.00
10071;BME280;5074;53.720;10.014;2022-11-11T13:19:23;102452.47;;;10.45;100.00
10071;BME280;5074;53.720;10.014;2022-11-11T13:21:58;102451.56;;;10.42;100.00
10071;BME280;5074;53.720;10.014;2022-11-11T13:24:28;102454.22;;;10.49;100.00